Time;durP1;ratioP1;P1;durP2;ratioP2;P2;SDS_P1;SDS_P2;PMS_P1;PMS_P2;Temp;Humidity;BMP_temperature;BMP_pressure;BME280_temperature;BME280_humidity;BME280_pressure;Samples;Min_cycle;Max_cycle;Signal;HPM_P1;HPM_P2
2023/06/05 00:02:22;;;;;;;3.92;3.00;;;12.40;99.90;;;;;;4981690;28;20027;-79
2023/06/05 00:04:48;;;;;;;4.60;2.38;;;12.40;99.90;;;;;;4979974;28;20098;-78
2023/06/05 00:07:14;;;;;;;2.63;2.17;;;12.30;99.90;;;;;;4974889;28;20043;-79
2023/06/05 00:09:41;;;;;;;5.55;2.83;;;12.20;99.90;;;;;;4983627;28;20487;-79
2023/06/05 00:12:08;;;;;;;2.65;2.17;;;12.20;99.90;;;;;;4978847;28;20062;-80
2023/06/05 00:14:34;;;;;;;3.67;2.60;;;12.10;99.90;;;;;;4966839;28;20377;-78
2023/06/05 00:17:00;;;;;;;3.13;2.58;;;12.10;99.90;;;;;;4981680;28;20094;-78
2023/06/05 00:19:26;;;;;;;4.15;3.25;;;12.10;99.90;;;;;;4980656;28;20023;-79
2023/06/05 00:21:52;;;;;;;3.35;2.17;;;12.20;99.90;;;;;;4979866;28;20083;-78
2023/06/05 00:24:18;;;;;;;3.25;2.72;;;12.00;99.90;;;;;;4974156;28;20074;-80
2023/06/05 00:26:44;;;;;;;2.75;2.03;;;12.00;99.90;;;;;;4981136;28;20467;-78
2023/06/05 00:29:09;;;;;;;3.05;2.33;;;12.00;99.90;;;;;;4981472;28;20567;-78
2023/06/05 00:31:35;;;;;;;5.53;2.47;;;12.00;99.90;;;;;;4974858;28;20035;-77
2023/06/05 00:34:01;;;;;;;5.43;2.40;;;12.00;99.90;;;;;;4973840;28;20027;-79
2023/06/05 00:36:27;;;;;;;3.10;2.28;;;9.00;99.90;;;;;;4958570;28;20030;-78
2023/06/05 00:38:53;;;;;;;4.82;2.55;;;11.80;99.90;;;;;;4979216;28;20034;-78
2023/06/05 00:41:19;;;;;;;2.92;2.55;;;11.70;99.90;;;;;;4977120;28;20035;-78
2023/06/05 00:43:45;;;;;;;6.63;2.10;;;11.70;99.90;;;;;;4979472;28;20455;-79
2023/06/05 00:46:11;;;;;;;2.90;2.20;;;11.70;99.90;;;;;;4978620;28;20057;-79
2023/06/05 00:48:37;;;;;;;5.38;2.22;;;11.70;99.90;;;;;;4975070;28;20483;-78
2023/06/05 00:51:03;;;;;;;2.30;2.10;;;11.70;99.90;;;;;;4974964;28;20035;-78
2023/06/05 00:53:32;;;;;;;3.63;2.00;;;11.70;99.90;;;;;;4973446;28;20301;-77
2023/06/05 00:55:58;;;;;;;3.47;2.75;;;11.70;99.90;;;;;;4972024;28;20031;-78
2023/06/05 00:58:25;;;;;;;2.10;1.90;;;11.80;99.90;;;;;;4974631;28;20027;-78
2023/06/05 01:00:51;;;;;;;2.50;1.98;;;11.70;99.90;;;;;;4976337;28;20031;-78
2023/06/05 01:03:16;;;;;;;2.13;1.73;;;11.60;99.90;;;;;;4991824;28;20030;-78
2023/06/05 01:05:43;;;;;;;4.53;2.20;;;11.60;99.90;;;;;;4992546;28;20030;-78
2023/06/05 01:08:12;;;;;;;5.95;3.05;;;11.50;99.90;;;;;;4992162;28;20041;-82
2023/06/05 01:10:38;;;;;;;4.93;2.03;;;11.50;99.90;;;;;;4976451;28;20027;-80
2023/06/05 01:13:23;;;;;;;4.60;2.47;;;11.50;99.90;;;;;;4977309;28;20302;-78
2023/06/05 01:15:50;;;;;;;3.35;2.20;;;11.50;99.90;;;;;;4971482;28;20011;-80
2023/06/05 01:18:18;;;;;;;6.40;2.67;;;11.50;99.90;;;;;;4993449;28;20082;-79
2023/06/05 01:20:44;;;;;;;3.20;2.25;;;11.50;99.90;;;;;;4994689;28;20027;-77
2023/06/05 01:23:10;;;;;;;2.97;1.88;;;11.40;99.90;;;;;;4995882;28;20046;-78
2023/06/05 01:25:41;;;;;;;6.35;2.88;;;11.40;99.90;;;;;;4995377;28;20436;-78
2023/06/05 01:28:28;;;;;;;2.17;1.77;;;11.40;99.90;;;;;;4996588;28;20030;-78
2023/06/05 01:31:36;;;;;;;1.92;1.45;;;11.40;99.90;;;;;;4993896;28;20031;-78
2023/06/05 01:34:07;;;;;;;2.65;1.85;;;11.30;99.90;;;;;;4995637;28;20091;-79
2023/06/05 01:36:33;;;;;;;2.13;1.90;;;;;;;;;;5001973;23;20051;-79
2023/06/05 01:38:59;;;;;;;4.60;2.22;;;;;;;;;;4996276;28;20023;-78
2023/06/05 01:41:26;;;;;;;2.78;1.80;;;11.20;99.90;;;;;;4994496;28;20041;-79
2023/06/05 01:43:53;;;;;;;2.05;1.73;;;11.20;99.90;;;;;;4977697;28;20026;-78
2023/06/05 01:46:21;;;;;;;2.67;2.03;;;11.20;99.90;;;;;;4977617;28;20062;-78
2023/06/05 01:48:47;;;;;;;3.67;2.00;;;11.30;99.90;;;;;;4978490;28;20037;-77
2023/06/05 01:51:36;;;;;;;2.08;1.98;;;11.20;99.90;;;;;;4977988;28;20035;-77
2023/06/05 01:54:02;;;;;;;4.32;2.15;;;11.00;99.90;;;;;;4992375;28;20030;-77
2023/06/05 01:56:30;;;;;;;2.97;2.17;;;9.50;99.90;;;;;;4993885;28;20103;-78
2023/06/05 01:59:21;;;;;;;2.70;1.88;;;10.90;99.90;;;;;;4995549;28;20070;-78
2023/06/05 02:01:55;;;;;;;2.90;1.60;;;10.90;99.90;;;;;;4979145;28;20042;-77
2023/06/05 02:04:21;;;;;;;3.08;2.08;;;10.90;99.90;;;;;;4995673;28;20603;-78
2023/06/05 02:06:48;;;;;;;2.95;1.95;;;10.90;99.90;;;;;;4988155;28;20034;-78
2023/06/05 02:09:34;;;;;;;14.70;3.03;;;10.90;99.90;;;;;;4992586;28;20026;-79
2023/06/05 02:12:03;;;;;;;4.32;2.13;;;10.90;99.90;;;;;;4989832;28;20027;-78
2023/06/05 02:14:31;;;;;;;2.10;1.90;;;10.90;99.90;;;;;;4987327;28;20030;-80
2023/06/05 02:16:58;;;;;;;3.85;1.88;;;10.90;99.90;;;;;;4971140;28;20041;-78
2023/06/05 02:19:24;;;;;;;2.50;1.88;;;10.90;99.90;;;;;;4971866;28;20010;-78
2023/06/05 02:21:51;;;;;;;4.28;2.15;;;10.80;99.90;;;;;;4988279;28;20030;-78
2023/06/05 02:24:18;;;;;;;1.75;1.65;;;10.80;99.90;;;;;;4989064;28;20023;-79
2023/06/05 02:26:44;;;;;;;2.35;2.15;;;10.70;99.90;;;;;;4994104;28;20038;-80
2023/06/05 02:29:10;;;;;;;2.90;2.03;;;10.70;99.90;;;;;;4977439;28;20034;-77
2023/06/05 02:31:36;;;;;;;3.03;1.98;;;10.60;99.90;;;;;;4994315;28;20054;-79
2023/06/05 02:34:06;;;;;;;2.38;1.90;;;10.60;99.90;;;;;;4994083;28;20061;-78
2023/06/05 02:36:32;;;;;;;5.30;2.50;;;10.70;99.90;;;;;;4991818;28;20070;-78
2023/06/05 02:39:04;;;;;;;1.70;1.60;;;10.60;99.90;;;;;;4990042;28;20582;-77
2023/06/05 02:41:30;;;;;;;1.88;1.75;;;10.50;99.90;;;;;;4993663;28;20031;-77
2023/06/05 02:43:56;;;;;;;1.70;1.60;;;10.60;99.90;;;;;;4992122;28;20014;-78
2023/06/05 02:46:24;;;;;;;2.95;2.38;;;10.60;99.90;;;;;;4983336;28;20174;-78
2023/06/05 02:48:50;;;;;;;2.22;2.03;;;10.50;99.90;;;;;;4963899;28;20027;-78
2023/06/05 02:51:16;;;;;;;7.65;2.17;;;10.50;99.90;;;;;;4963980;28;20086;-77
2023/06/05 02:53:45;;;;;;;2.20;1.90;;;10.40;99.90;;;;;;4979961;28;20014;-77
2023/06/05 02:56:12;;;;;;;4.55;2.55;;;10.30;99.90;;;;;;4979995;28;20022;-77
2023/06/05 02:58:39;;;;;;;2.70;1.70;;;;;;;;;;4982340;28;20058;-77
2023/06/05 03:01:08;;;;;;;1.63;1.35;;;10.20;99.90;;;;;;4981461;28;20053;-78
2023/06/05 03:03:35;;;;;;;6.50;2.17;;;10.20;99.90;;;;;;4982017;28;20097;-77
2023/06/05 03:06:04;;;;;;;3.65;1.95;;;;;;;;;;4982257;28;20038;-77
2023/06/05 03:08:32;;;;;;;3.05;1.50;;;10.10;99.90;;;;;;4983984;28;20038;-78
2023/06/05 03:10:58;;;;;;;2.05;1.85;;;10.10;99.90;;;;;;4985391;28;20043;-78
2023/06/05 03:13:24;;;;;;;3.97;2.17;;;10.10;99.90;;;;;;4983626;28;20031;-79
2023/06/05 03:15:53;;;;;;;3.08;1.73;;;10.10;99.90;;;;;;4984646;28;20503;-77
2023/06/05 03:18:24;;;;;;;1.95;1.80;;;10.10;99.90;;;;;;4981545;28;20196;-78
2023/06/05 03:20:51;;;;;;;3.38;1.73;;;10.10;99.90;;;;;;4979675;28;20074;-77
2023/06/05 03:23:17;;;;;;;4.90;1.92;;;;;;;;;;4964831;28;20038;-77
2023/06/05 03:25:42;;;;;;;2.50;1.75;;;10.00;99.90;;;;;;4988860;28;20042;-78
2023/06/05 03:28:08;;;;;;;2.00;1.75;;;10.00;99.90;;;;;;4975800;28;20022;-79
2023/06/05 03:30:34;;;;;;;2.60;1.73;;;9.90;99.90;;;;;;4994525;28;20007;-78
2023/06/05 03:32:59;;;;;;;1.58;1.48;;;9.90;99.90;;;;;;4975803;28;20015;-78
2023/06/05 03:35:29;;;;;;;2.08;1.85;;;9.90;99.90;;;;;;4976334;28;20851;-80
2023/06/05 03:37:59;;;;;;;6.18;2.13;;;10.00;99.90;;;;;;4990766;28;20019;-77
2023/06/05 03:40:24;;;;;;;2.38;1.63;;;10.00;99.90;;;;;;4978531;28;20102;-78
2023/06/05 03:42:50;;;;;;;3.13;1.85;;;10.00;99.90;;;;;;4994728;28;20035;-79
2023/06/05 03:45:16;;;;;;;3.17;1.83;;;10.00;99.90;;;;;;4976490;28;20053;-78
2023/06/05 03:47:43;;;;;;;2.53;1.92;;;10.00;99.90;;;;;;4991962;28;20018;-77
2023/06/05 03:50:10;;;;;;;2.63;1.73;;;10.00;99.90;;;;;;4974501;28;20050;-78
2023/06/05 03:52:39;;;;;;;1.13;1.13;;;10.00;99.90;;;;;;4971156;28;20026;-77
2023/06/05 03:55:07;;;;;;;1.42;1.25;;;10.10;99.90;;;;;;4990141;28;20063;-78
2023/06/05 03:57:33;;;;;;;1.35;1.20;;;10.00;99.90;;;;;;4987299;28;20030;-78
2023/06/05 03:59:59;;;;;;;5.15;1.65;;;10.00;99.90;;;;;;4990672;28;20010;-79
2023/06/05 04:02:26;;;;;;;2.83;1.35;;;10.10;99.90;;;;;;4975296;28;20031;-77
2023/06/05 04:04:51;;;;;;;3.15;1.83;;;10.10;99.90;;;;;;4972518;28;20078;-78
2023/06/05 04:07:18;;;;;;;3.55;1.75;;;;;;;;;;4977864;28;20014;-78
2023/06/05 04:09:44;;;;;;;2.03;1.23;;;;;;;;;;5023661;23;20025;-78
2023/06/05 04:12:19;;;;;;;2.72;1.70;;;10.40;99.90;;;;;;5054178;28;20009;-80
2023/06/05 04:14:45;;;;;;;2.25;2.03;;;10.50;99.90;;;;;;5039265;28;20060;-80
2023/06/05 04:17:13;;;;;;;2.13;1.85;;;10.60;99.90;;;;;;5039192;28;20026;-79
2023/06/05 04:19:39;;;;;;;3.00;1.70;;;10.60;99.90;;;;;;5039413;28;20006;-79
2023/06/05 04:22:05;;;;;;;3.88;1.52;;;10.70;99.90;;;;;;5039357;28;20037;-79
2023/06/05 04:24:31;;;;;;;1.98;1.83;;;10.70;99.90;;;;;;5056298;28;20002;-78
2023/06/05 04:27:17;;;;;;;2.33;1.58;;;10.70;99.90;;;;;;5053118;28;20033;-78
2023/06/05 04:29:44;;;;;;;3.38;2.15;;;10.70;99.90;;;;;;5038646;28;20025;-78
2023/06/05 04:32:10;;;;;;;4.55;1.95;;;10.80;99.90;;;;;;5038927;28;20025;-77
2023/06/05 04:34:36;;;;;;;6.30;1.70;;;;;;;;;;4994640;23;20055;-79
2023/06/05 04:37:03;;;;;;;1.50;1.40;;;11.00;99.90;;;;;;4964955;29;20031;-77
2023/06/05 04:39:29;;;;;;;4.20;2.15;;;11.10;99.90;;;;;;4963207;29;20027;-77
2023/06/05 04:41:55;;;;;;;2.85;1.38;;;;;;;;;;4966438;29;20082;-78
2023/06/05 04:44:20;;;;;;;2.45;2.25;;;11.40;99.90;;;;;;4965133;29;20078;-78
2023/06/05 04:46:46;;;;;;;1.30;1.20;;;11.80;99.90;;;;;;4949947;29;20034;-77
2023/06/05 04:49:13;;;;;;;3.00;1.58;;;12.10;99.90;;;;;;4967312;29;20042;-78
2023/06/05 04:51:39;;;;;;;2.45;1.70;;;12.30;99.90;;;;;;4967243;29;20007;-78
2023/06/05 04:54:05;;;;;;;2.28;1.60;;;12.50;99.90;;;;;;4967585;29;20508;-78
2023/06/05 04:56:34;;;;;;;3.08;2.50;;;12.50;99.90;;;;;;4974971;29;20503;-80
2023/06/05 04:59:02;;;;;;;6.90;1.80;;;12.60;99.90;;;;;;5003499;23;20023;-78
2023/06/05 05:01:28;;;;;;;4.07;1.45;;;12.90;99.90;;;;;;4982690;28;20043;-78
2023/06/05 05:03:54;;;;;;;2.83;1.83;;;12.80;99.90;;;;;;4982990;28;20011;-78
2023/06/05 05:06:21;;;;;;;3.65;1.45;;;12.80;99.90;;;;;;4998803;28;20069;-79
2023/06/05 05:08:50;;;;;;;5.72;1.85;;;12.80;99.90;;;;;;5000174;28;20114;-81
2023/06/05 05:11:16;;;;;;;2.55;1.30;;;12.80;99.90;;;;;;4982947;28;20010;-80
2023/06/05 05:13:43;;;;;;;2.53;1.70;;;12.80;99.90;;;;;;4998966;28;20035;-78
2023/06/05 05:16:09;;;;;;;4.70;1.58;;;12.90;99.90;;;;;;4974976;28;20055;-78
2023/06/05 05:18:36;;;;;;;2.50;1.67;;;13.10;99.90;;;;;;4956493;28;20059;-78
2023/06/05 05:21:04;;;;;;;2.72;1.85;;;13.10;99.90;;;;;;4956049;28;20058;-77
2023/06/05 05:23:30;;;;;;;1.92;1.50;;;13.20;99.90;;;;;;4973558;28;20125;-77
2023/06/05 05:25:57;;;;;;;1.48;1.33;;;13.20;99.90;;;;;;4955779;28;20496;-77
2023/06/05 05:28:23;;;;;;;6.15;1.73;;;13.40;99.90;;;;;;4972222;28;20046;-77
2023/06/05 05:30:48;;;;;;;2.00;1.48;;;13.40;99.90;;;;;;4972079;28;20022;-77
2023/06/05 05:33:14;;;;;;;2.53;1.80;;;13.50;99.90;;;;;;4974336;28;20026;-78
2023/06/05 05:35:40;;;;;;;2.33;1.92;;;13.60;99.90;;;;;;4975803;28;20472;-78
2023/06/05 05:38:06;;;;;;;1.45;1.23;;;13.70;99.90;;;;;;4977306;28;20050;-77
2023/06/05 05:40:32;;;;;;;1.60;1.50;;;13.70;99.90;;;;;;4969486;28;20488;-79
2023/06/05 05:42:57;;;;;;;4.10;1.77;;;13.90;99.90;;;;;;4975800;28;20026;-76
2023/06/05 05:45:23;;;;;;;2.08;1.88;;;14.30;99.90;;;;;;4957137;28;20099;-76
2023/06/05 05:47:48;;;;;;;2.00;1.83;;;14.30;99.90;;;;;;4961090;28;20031;-78
2023/06/05 05:50:14;;;;;;;4.93;1.67;;;14.50;99.90;;;;;;4956752;28;20125;-78
2023/06/05 05:52:40;;;;;;;2.63;1.75;;;14.70;99.90;;;;;;4973030;28;20035;-77
2023/06/05 05:55:06;;;;;;;3.55;1.90;;;14.80;99.90;;;;;;4956321;28;20055;-78
2023/06/05 05:57:32;;;;;;;2.45;2.10;;;14.90;99.90;;;;;;4972337;28;20055;-79
2023/06/05 05:59:58;;;;;;;3.00;2.03;;;15.10;99.90;;;;;;4954083;28;20073;-78
2023/06/05 06:02:23;;;;;;;6.13;2.33;;;15.30;99.90;;;;;;4952433;28;20066;-79
2023/06/05 06:04:49;;;;;;;6.28;2.60;;;15.50;99.90;;;;;;4969962;28;20026;-78
2023/06/05 06:07:15;;;;;;;4.78;2.60;;;15.70;99.90;;;;;;4952854;28;20042;-79
2023/06/05 06:09:41;;;;;;;6.72;2.42;;;15.90;99.90;;;;;;4952410;28;20086;-79
2023/06/05 06:12:07;;;;;;;8.63;2.90;;;16.00;99.90;;;;;;4952742;28;20027;-78
2023/06/05 06:14:36;;;;;;;5.13;2.83;;;16.10;99.90;;;;;;4970382;28;20054;-78
2023/06/05 06:17:02;;;;;;;5.65;3.65;;;16.30;99.90;;;;;;4955266;28;20085;-77
2023/06/05 06:19:28;;;;;;;5.57;3.78;;;16.40;99.90;;;;;;4972986;28;20047;-79
2023/06/05 06:21:55;;;;;;;7.03;3.72;;;16.40;99.90;;;;;;4954831;28;20023;-77
2023/06/05 06:24:21;;;;;;;4.70;3.25;;;16.40;99.90;;;;;;4971629;28;20030;-78
2023/06/05 06:26:48;;;;;;;4.55;3.20;;;16.40;99.90;;;;;;4955114;28;20078;-78
2023/06/05 06:29:20;;;;;;;4.95;2.85;;;16.40;99.90;;;;;;4954070;28;20357;-79
2023/06/05 06:31:46;;;;;;;4.75;3.40;;;16.50;99.90;;;;;;4956882;28;20549;-78
2023/06/05 06:34:12;;;;;;;5.18;3.50;;;16.70;99.90;;;;;;4958393;28;20474;-79
2023/06/05 06:36:40;;;;;;;6.75;3.97;;;16.60;99.90;;;;;;4980879;28;20066;-78
2023/06/05 06:39:08;;;;;;;6.00;3.90;;;17.20;99.90;;;;;;4979929;28;20558;-79
2023/06/05 06:41:34;;;;;;;4.82;3.42;;;18.20;99.90;;;;;;4969519;28;20030;-80
2023/06/05 06:44:01;;;;;;;13.68;3.60;;;20.00;95.30;;;;;;4987260;28;20082;-79
2023/06/05 06:46:26;;;;;;;13.13;3.85;;;20.10;94.00;;;;;;4954095;28;20130;-79
2023/06/05 06:48:52;;;;;;;4.00;3.45;;;20.90;90.60;;;;;;4969520;28;20125;-78
2023/06/05 06:51:18;;;;;;;5.30;3.38;;;21.20;85.20;;;;;;4981196;28;20476;-78
2023/06/05 06:53:44;;;;;;;4.93;3.83;;;21.00;83.60;;;;;;4973975;28;20027;-81
2023/06/05 06:56:10;;;;;;;3.55;3.20;;;21.10;82.10;;;;;;4953817;28;20077;-78
2023/06/05 06:58:36;;;;;;;6.82;3.70;;;20.80;83.10;;;;;;4970787;28;20126;-79
2023/06/05 07:01:03;;;;;;;5.82;4.28;;;21.30;81.70;;;;;;4954930;28;20306;-77
2023/06/05 07:03:29;;;;;;;5.88;3.75;;;21.40;81.20;;;;;;4953175;28;20035;-77
2023/06/05 07:05:55;;;;;;;6.28;3.95;;;21.00;81.50;;;;;;4974231;28;20031;-79
2023/06/05 07:08:21;;;;;;;3.58;3.00;;;21.30;80.60;;;;;;4973613;28;20086;-77
2023/06/05 07:10:46;;;;;;;4.75;3.20;;;21.40;80.70;;;;;;4968290;28;20043;-77
2023/06/05 07:13:12;;;;;;;5.47;3.47;;;21.80;77.50;;;;;;4969589;28;20105;-78
2023/06/05 07:15:38;;;;;;;7.65;3.78;;;22.00;78.80;;;;;;4970942;28;20065;-78
2023/06/05 07:18:03;;;;;;;3.47;3.15;;;21.70;77.40;;;;;;4970928;28;20022;-78
2023/06/05 07:20:30;;;;;;;7.20;3.63;;;21.80;75.90;;;;;;4971363;28;20507;-78
2023/06/05 07:22:56;;;;;;;8.45;3.75;;;21.80;75.80;;;;;;4972387;28;20022;-77
2023/06/05 07:25:24;;;;;;;13.85;4.15;;;22.30;75.20;;;;;;4969184;28;20027;-79
2023/06/05 07:27:50;;;;;;;4.20;2.88;;;22.60;72.60;;;;;;4968771;28;20085;-79
2023/06/05 07:30:16;;;;;;;6.50;3.67;;;22.60;73.90;;;;;;4952336;28;20085;-77
2023/06/05 07:32:42;;;;;;;6.68;3.60;;;22.40;73.10;;;;;;4970032;28;20428;-78
2023/06/05 07:35:09;;;;;;;6.50;3.42;;;22.00;73.00;;;;;;4953402;28;20030;-78
2023/06/05 07:37:35;;;;;;;5.03;3.58;;;22.00;73.60;;;;;;4970213;28;20511;-85
2023/06/05 07:40:02;;;;;;;5.38;3.35;;;22.70;71.70;;;;;;4952989;28;20129;-84
2023/06/05 07:42:28;;;;;;;4.70;3.58;;;22.70;71.40;;;;;;4970089;28;20015;-81
2023/06/05 07:44:53;;;;;;;6.95;3.63;;;22.90;72.00;;;;;;4968635;28;20364;-82
2023/06/05 07:47:20;;;;;;;5.35;4.07;;;23.00;70.00;;;;;;4970929;28;20043;-85
2023/06/05 07:50:00;;;;;;;5.40;3.22;;;23.10;68.70;;;;;;4966431;28;20027;-80
2023/06/05 07:52:27;;;;;;;5.28;3.35;;;23.10;69.30;;;;;;4952655;28;20239;-79
2023/06/05 07:54:53;;;;;;;4.43;3.42;;;23.20;70.60;;;;;;4969569;28;20023;-81
2023/06/05 07:57:20;;;;;;;5.57;3.50;;;23.60;68.80;;;;;;4968042;28;20055;-81
2023/06/05 07:59:48;;;;;;;10.35;3.88;;;23.20;67.70;;;;;;4977703;28;20106;-78
2023/06/05 08:02:15;;;;;;;5.63;3.80;;;22.80;69.10;;;;;;4973657;28;20051;-82
2023/06/05 08:04:41;;;;;;;4.38;3.50;;;22.60;70.80;;;;;;4957773;28;20042;-82
2023/06/05 08:07:06;;;;;;;5.00;3.70;;;22.70;71.10;;;;;;4953120;28;20081;-81
2023/06/05 08:09:33;;;;;;;6.80;3.70;;;23.00;70.10;;;;;;4954275;28;20026;-81
2023/06/05 08:11:59;;;;;;;8.82;3.75;;;23.40;67.20;;;;;;4963477;28;20078;-84
2023/06/05 08:14:25;;;;;;;5.30;4.15;;;23.50;67.80;;;;;;4973419;28;20023;-82
2023/06/05 08:16:51;;;;;;;4.55;3.25;;;23.30;69.30;;;;;;4996186;28;20023;-81
2023/06/05 08:19:17;;;;;;;8.45;3.85;;;23.20;67.60;;;;;;4967038;28;20031;-84
2023/06/05 08:21:43;;;;;;;6.63;3.25;;;23.20;69.10;;;;;;4956278;28;20111;-84
2023/06/05 08:24:08;;;;;;;4.57;3.10;;;23.60;70.00;;;;;;4956573;28;20317;-80
2023/06/05 08:26:34;;;;;;;4.38;3.33;;;23.70;67.50;;;;;;4972342;28;20152;-82
2023/06/05 08:29:00;;;;;;;4.68;3.42;;;23.30;68.70;;;;;;4972448;28;20027;-77
2023/06/05 08:31:26;;;;;;;4.20;3.60;;;23.00;69.00;;;;;;4978391;28;20446;-77
2023/06/05 08:33:51;;;;;;;5.93;3.30;;;23.00;68.30;;;;;;4972309;28;20027;-78
2023/06/05 08:36:17;;;;;;;7.22;3.53;;;23.10;67.70;;;;;;4936479;29;20054;-80
2023/06/05 08:38:44;;;;;;;9.85;3.97;;;;;;;;;;4955299;29;20026;-81
2023/06/05 08:41:10;;;;;;;5.43;3.63;;;22.50;68.40;;;;;;4941979;29;20027;-79
2023/06/05 08:43:44;;;;;;;6.03;3.38;;;22.70;67.90;;;;;;4953313;29;20400;-78
2023/06/05 08:46:11;;;;;;;3.88;3.03;;;23.30;68.20;;;;;;4936051;29;20512;-78
2023/06/05 08:48:42;;;;;;;7.95;3.15;;;23.30;68.90;;;;;;4935942;29;20374;-79
2023/06/05 08:51:11;;;;;;;6.45;2.85;;;23.80;65.60;;;;;;4935932;29;20027;-80
2023/06/05 08:53:39;;;;;;;7.40;2.60;;;23.80;65.00;;;;;;4951870;29;20023;-79
2023/06/05 08:56:06;;;;;;;5.32;3.25;;;24.00;65.40;;;;;;4936026;29;20027;-80
2023/06/05 08:58:33;;;;;;;5.00;3.03;;;24.10;64.50;;;;;;4936017;29;20047;-82
2023/06/05 09:00:59;;;;;;;7.28;2.90;;;24.30;64.20;;;;;;4935890;29;20551;-80
2023/06/05 09:03:25;;;;;;;5.15;3.35;;;24.40;65.20;;;;;;4952685;29;20098;-78
2023/06/05 09:05:54;;;;;;;9.45;3.03;;;24.40;62.40;;;;;;4953047;29;20171;-78
2023/06/05 09:08:32;;;;;;;3.58;2.55;;;24.50;62.10;;;;;;4935035;29;20027;-80
2023/06/05 09:11:28;;;;;;;8.45;2.97;;;24.50;62.50;;;;;;4936473;29;20027;-79
2023/06/05 09:14:01;;;;;;;7.63;3.33;;;24.40;63.40;;;;;;4947079;28;20038;-79
2023/06/05 09:16:44;;;;;;;5.25;2.83;;;24.00;65.90;;;;;;4952030;29;20027;-78
2023/06/05 09:19:13;;;;;;;3.50;2.88;;;23.80;63.40;;;;;;4952105;29;20059;-79
2023/06/05 09:21:39;;;;;;;7.60;2.75;;;23.60;63.50;;;;;;4933908;29;20023;-79
2023/06/05 09:24:16;;;;;;;4.72;3.13;;;23.90;62.70;;;;;;4951966;28;20031;-79
2023/06/05 09:27:02;;;;;;;3.80;3.05;;;23.90;62.80;;;;;;4933545;29;20043;-79
2023/06/05 09:29:35;;;;;;;5.43;2.60;;;23.90;62.50;;;;;;4952054;29;20020;-79
2023/06/05 09:32:06;;;;;;;7.43;3.08;;;23.80;63.30;;;;;;4951621;29;20644;-79
2023/06/05 09:34:37;;;;;;;3.10;2.33;;;24.20;63.20;;;;;;4951562;29;20023;-79
2023/06/05 09:37:10;;;;;;;4.78;3.22;;;24.70;60.90;;;;;;4951307;29;20023;-79
2023/06/05 09:39:37;;;;;;;4.45;3.08;;;25.70;57.90;;;;;;4950908;29;20038;-80
2023/06/05 09:42:04;;;;;;;5.85;2.67;;;25.70;58.50;;;;;;4951403;29;20019;-79
2023/06/05 09:44:31;;;;;;;5.38;3.63;;;25.80;58.70;;;;;;4934004;29;20038;-79
2023/06/05 09:47:05;;;;;;;6.38;2.90;;;25.60;57.50;;;;;;4952297;29;20046;-78
2023/06/05 09:49:50;;;;;;;6.97;2.47;;;25.20;57.60;;;;;;4935704;29;20047;-79
2023/06/05 09:52:16;;;;;;;5.65;2.63;;;25.20;58.90;;;;;;4951184;28;20387;-79
2023/06/05 09:54:47;;;;;;;2.78;2.35;;;25.60;57.90;;;;;;4935306;29;20031;-78
2023/06/05 09:57:14;;;;;;;4.78;2.42;;;25.70;57.20;;;;;;4952688;29;20556;-78
2023/06/05 09:59:55;;;;;;;5.00;3.03;;;25.20;58.50;;;;;;4935372;29;20039;-79
2023/06/05 10:02:32;;;;;;;3.33;2.53;;;25.50;56.60;;;;;;4952699;29;20507;-79
2023/06/05 10:05:04;;;;;;;4.05;2.50;;;25.50;57.10;;;;;;4952644;29;20035;-79
2023/06/05 10:07:35;;;;;;;5.28;2.60;;;25.70;55.90;;;;;;4952576;29;20054;-78
2023/06/05 10:10:01;;;;;;;3.10;2.42;;;26.10;57.00;;;;;;4934960;29;20054;-79
2023/06/05 10:12:30;;;;;;;3.88;2.80;;;26.40;57.70;;;;;;4935187;29;20126;-79
2023/06/05 10:14:57;;;;;;;4.78;2.35;;;26.60;56.60;;;;;;4952729;29;20019;-79
2023/06/05 10:17:23;;;;;;;3.50;3.05;;;26.70;54.70;;;;;;4935034;29;20118;-78
2023/06/05 10:19:50;;;;;;;5.40;2.53;;;26.10;54.70;;;;;;4935089;29;20530;-79
2023/06/05 10:22:18;;;;;;;7.63;3.00;;;25.60;56.30;;;;;;4935399;29;20027;-78
2023/06/05 10:24:55;;;;;;;3.72;3.25;;;25.80;57.20;;;;;;4952052;29;20031;-79
2023/06/05 10:27:42;;;;;;;3.97;2.60;;;26.10;55.40;;;;;;4934931;29;20161;-80
2023/06/05 10:30:52;;;;;;;5.60;2.75;;;26.30;54.70;;;;;;4952156;29;20093;-79
2023/06/05 10:33:45;;;;;;;7.03;2.85;;;27.00;55.60;;;;;;4934569;29;20031;-78
2023/06/05 10:36:41;;;;;;;3.58;2.25;;;26.80;55.90;;;;;;4950716;29;20030;-79
2023/06/05 10:39:11;;;;;;;3.20;2.50;;;26.80;54.00;;;;;;4934852;29;20612;-79
2023/06/05 10:41:37;;;;;;;4.18;3.15;;;27.40;54.40;;;;;;4951869;29;20478;-79
2023/06/05 10:44:03;;;;;;;3.85;2.70;;;27.70;52.40;;;;;;4952007;29;20427;-79
2023/06/05 10:46:34;;;;;;;2.88;2.40;;;28.00;52.00;;;;;;4934628;29;20050;-79
2023/06/05 10:49:07;;;;;;;4.88;2.50;;;28.30;51.70;;;;;;4934507;29;20023;-80
2023/06/05 10:51:40;;;;;;;6.20;2.30;;;29.20;52.20;;;;;;4934547;29;20031;-78
2023/06/05 10:54:07;;;;;;;8.65;2.53;;;29.40;52.20;;;;;;4951717;29;20088;-78
2023/06/05 10:56:55;;;;;;;3.65;2.30;;;28.80;51.70;;;;;;4934298;29;20035;-78
2023/06/05 10:59:23;;;;;;;4.53;2.80;;;28.20;50.60;;;;;;4934389;29;20512;-79
2023/06/05 11:02:08;;;;;;;3.20;2.45;;;28.40;52.20;;;;;;4934418;29;20624;-79
2023/06/05 11:04:46;;;;;;;2.92;2.60;;;;;;;;;;4934442;29;20019;-78
2023/06/05 11:07:26;;;;;;;5.68;2.58;;;28.10;50.90;;;;;;4934178;29;20042;-79
2023/06/05 11:10:22;;;;;;;2.47;2.28;;;28.40;51.40;;;;;;4951320;29;20031;-79
2023/06/05 11:12:47;;;;;;;4.43;2.85;;;29.10;49.40;;;;;;4951461;29;20023;-80
2023/06/05 11:15:26;;;;;;;6.53;2.50;;;30.20;48.80;;;;;;4951765;29;20074;-79
2023/06/05 11:17:52;;;;;;;2.45;2.25;;;30.30;45.90;;;;;;4934410;29;20477;-79
2023/06/05 11:20:23;;;;;;;3.60;2.45;;;29.70;46.90;;;;;;4951338;28;20130;-78
2023/06/05 11:23:00;;;;;;;5.38;2.30;;;29.10;50.80;;;;;;4934256;29;20384;-79
2023/06/05 11:25:27;;;;;;;3.20;2.15;;;29.00;47.60;;;;;;4933660;29;20030;-78
2023/06/05 11:28:01;;;;;;;2.83;2.53;;;29.30;47.30;;;;;;4949943;29;20027;-80
2023/06/05 11:30:31;;;;;;;5.30;2.42;;;29.80;47.00;;;;;;4951294;29;20019;-79
2023/06/05 11:33:17;;;;;;;6.57;2.67;;;29.30;46.60;;;;;;4933959;29;20031;-79
2023/06/05 11:35:45;;;;;;;3.25;2.28;;;29.40;47.00;;;;;;4934066;29;20078;-78
2023/06/05 11:38:19;;;;;;;6.75;2.90;;;28.90;46.40;;;;;;4933979;29;20303;-79
2023/06/05 11:40:45;;;;;;;4.63;3.17;;;28.70;48.00;;;;;;4933821;29;20440;-79
2023/06/05 11:43:12;;;;;;;3.08;2.55;;;29.10;46.80;;;;;;4934081;29;20042;-79
2023/06/05 11:45:48;;;;;;;8.25;2.83;;;30.30;46.90;;;;;;4937666;29;20027;-78
2023/06/05 11:48:15;;;;;;;3.40;2.53;;;30.30;48.00;;;;;;4937733;29;20031;-79
2023/06/05 11:50:56;;;;;;;3.95;2.50;;;30.40;44.90;;;;;;4937801;29;20447;-79
2023/06/05 11:53:22;;;;;;;2.72;2.17;;;30.30;45.20;;;;;;4955067;29;20036;-79
2023/06/05 11:58:27;;;;;;;;;;;31.10;43.90;;;;;;4954746;29;20044;-76
2023/06/05 12:01:17;;;;;;;2.60;2.40;;;31.70;43.70;;;;;;4954962;29;19910;-80
2023/06/05 12:03:44;;;;;;;2.63;2.30;;;31.60;44.40;;;;;;4937655;29;20239;-79
2023/06/05 12:06:12;;;;;;;2.90;2.60;;;31.60;44.50;;;;;;4937586;29;20031;-79
2023/06/05 12:08:38;;;;;;;;;;;31.40;43.70;;;;;;4938893;29;20031;-79
2023/06/05 12:11:26;;;;;;;4.30;3.00;;;31.30;44.40;;;;;;4952996;29;20442;-79
2023/06/05 12:13:53;;;;;;;7.07;2.00;;;31.80;44.90;;;;;;4951750;29;20032;-81
2023/06/05 12:16:40;;;;;;;3.05;2.72;;;32.50;43.80;;;;;;4936106;29;20113;-79
2023/06/05 12:19:16;;;;;;;5.00;2.72;;;32.60;43.40;;;;;;4935189;29;20496;-79
2023/06/05 12:21:43;;;;;;;3.10;2.80;;;31.80;43.60;;;;;;4952768;29;20190;-79
2023/06/05 12:24:09;;;;;;;4.45;2.22;;;31.00;45.70;;;;;;4950988;29;20034;-79
2023/06/05 12:26:54;;;;;;;3.45;2.67;;;30.40;44.20;;;;;;4935018;29;20042;-79
2023/06/05 12:29:22;;;;;;;3.70;2.60;;;30.60;44.40;;;;;;4935527;29;20074;-80
2023/06/05 12:31:48;;;;;;;3.10;2.80;;;31.30;44.60;;;;;;4952710;29;20456;-78
2023/06/05 12:34:15;;;;;;;7.80;2.65;;;29.70;43.60;;;;;;4935839;29;20023;-79
2023/06/05 12:36:42;;;;;;;7.13;3.20;;;29.80;45.10;;;;;;4936848;29;20031;-79
2023/06/05 12:39:15;;;;;;;5.35;2.50;;;29.80;44.80;;;;;;4935925;29;20027;-80
2023/06/05 12:41:42;;;;;;;3.28;2.60;;;30.40;44.80;;;;;;4954105;29;20020;-78
2023/06/05 12:44:08;;;;;;;6.05;3.13;;;30.80;43.80;;;;;;4952724;29;20028;-80
2023/06/05 12:46:35;;;;;;;3.20;2.67;;;29.90;45.80;;;;;;4936702;29;20240;-79
2023/06/05 12:49:02;;;;;;;2.25;2.08;;;29.90;46.20;;;;;;4936808;29;20030;-79
2023/06/05 12:51:28;;;;;;;5.00;2.90;;;29.40;46.40;;;;;;4936919;29;20035;-79
2023/06/05 12:53:55;;;;;;;3.00;2.70;;;28.80;46.50;;;;;;4936951;29;20030;-79
2023/06/05 12:56:24;;;;;;;5.60;2.70;;;29.70;48.00;;;;;;4935110;29;20023;-79
2023/06/05 12:58:57;;;;;;;3.00;2.50;;;30.10;46.30;;;;;;4936309;29;20051;-78
2023/06/05 13:01:25;;;;;;;5.78;2.42;;;30.50;46.20;;;;;;4938448;29;20026;-79
2023/06/05 13:03:51;;;;;;;7.03;2.85;;;30.10;45.40;;;;;;4949431;28;20026;-79